Time;durP1;ratioP1;P1;durP2;ratioP2;P2;SDS_P1;SDS_P2;PMS_P1;PMS_P2;Temp;Humidity;BMP_temperature;BMP_pressure;BME280_temperature;BME280_humidity;BME280_pressure;Samples;Min_cycle;Max_cycle;Signal;HPM_P1;HPM_P2
2022/05/01 00:01:37;;;;;;;6.78;3.83;;;;;;;12.02;56.86;101813.66;5066524;28;20145;-66
2022/05/01 00:04:03;;;;;;;6.57;3.80;;;;;;;11.86;57.54;101808.16;5067810;28;20117;-66
2022/05/01 00:06:31;;;;;;;7.03;3.50;;;;;;;11.95;57.18;101812.22;5068527;28;20064;-66
2022/05/01 00:08:58;;;;;;;9.07;3.75;;;;;;;11.83;57.69;101807.44;5067698;28;20059;-66
2022/05/01 00:11:25;;;;;;;4.90;3.40;;;;;;;11.83;57.76;101796.91;5069439;28;20048;-66
2022/05/01 00:13:51;;;;;;;6.40;3.53;;;;;;;12.07;56.35;101807.31;5064265;28;20105;-66
2022/05/01 00:16:18;;;;;;;11.80;5.30;;;;;;;12.04;56.57;101803.97;5066975;28;20064;-66
2022/05/01 00:18:46;;;;;;;8.93;3.55;;;;;;;11.94;56.84;101800.84;5066993;28;20094;-66
2022/05/01 00:21:12;;;;;;;5.97;3.70;;;;;;;11.89;56.89;101796.69;5081969;28;20051;-66
2022/05/01 00:23:39;;;;;;;6.03;3.28;;;;;;;12.09;55.86;101794.09;5068624;28;20072;-66
2022/05/01 00:26:07;;;;;;;5.97;3.20;;;;;;;12.10;55.97;101793.19;5067911;28;20459;-66
2022/05/01 00:28:33;;;;;;;4.38;2.88;;;;;;;12.21;55.49;101793.59;5068086;28;20072;-66
2022/05/01 00:31:01;;;;;;;6.75;3.50;;;;;;;12.13;55.95;101801.78;5067401;28;20052;-66
2022/05/01 00:36:28;;;;;;;7.45;3.70;;;;;;;12.08;54.63;101797.66;5065033;28;20063;-66
2022/05/01 00:38:55;;;;;;;12.35;4.13;;;;;;;12.12;55.23;101794.00;5065926;28;20040;-67
2022/05/01 00:41:23;;;;;;;6.60;3.20;;;;;;;12.05;55.29;101803.03;5069043;28;20492;-67
2022/05/01 00:43:57;;;;;;;5.80;2.92;;;;;;;12.03;55.29;101797.84;5066459;28;20052;-66
2022/05/01 00:46:24;;;;;;;12.52;3.63;;;;;;;12.11;55.09;101800.16;5066957;28;20731;-66
2022/05/01 00:48:51;;;;;;;4.97;3.08;;;;;;;12.16;55.05;101800.81;5066747;28;20056;-66
2022/05/01 00:51:21;;;;;;;5.68;3.35;;;;;;;12.03;55.42;101799.63;5075628;28;20425;-66
2022/05/01 00:53:48;;;;;;;7.75;3.72;;;;;;;11.97;55.66;101790.19;5074988;28;20050;-67
2022/05/01 00:56:14;;;;;;;7.80;3.95;;;;;;;12.01;55.67;101799.66;5067373;28;20125;-67
2022/05/01 00:58:41;;;;;;;7.93;3.67;;;;;;;12.12;55.42;101788.72;5066657;28;20106;-66
2022/05/01 01:01:08;;;;;;;8.45;3.38;;;;;;;11.95;56.05;101789.41;5066864;28;20822;-66
2022/05/01 01:03:35;;;;;;;6.03;3.45;;;;;;;11.95;55.73;101792.03;5066915;28;20101;-66
2022/05/01 01:06:01;;;;;;;7.38;3.78;;;;;;;12.18;55.28;101797.22;5067369;28;20113;-66
2022/05/01 01:08:29;;;;;;;6.82;3.90;;;;;;;12.20;54.46;101792.72;5067391;28;20512;-67
2022/05/01 01:10:55;;;;;;;9.30;3.60;;;;;;;11.96;55.37;101790.28;5067566;28;20101;-67
2022/05/01 01:13:26;;;;;;;7.45;3.42;;;;;;;11.97;55.61;101790.19;5057515;28;20065;-67
2022/05/01 01:15:53;;;;;;;10.15;3.40;;;;;;;11.86;55.59;101787.13;5047204;28;20141;-67
2022/05/01 01:18:20;;;;;;;6.15;3.30;;;;;;;11.99;55.22;101788.38;5047108;28;20052;-67
2022/05/01 01:20:48;;;;;;;8.60;3.67;;;;;;;11.93;55.39;101793.03;5067121;28;20126;-66
2022/05/01 01:23:15;;;;;;;5.60;3.38;;;;;;;11.82;56.32;101796.09;5082391;28;20070;-66
2022/05/01 01:25:41;;;;;;;4.28;3.17;;;;;;;11.91;56.16;101798.34;5081602;28;20039;-67
2022/05/01 01:28:08;;;;;;;6.53;3.33;;;;;;;11.88;56.27;101790.56;5073938;28;20093;-72
2022/05/01 01:33:19;;;;;;;20.30;3.65;;;;;;;11.92;55.71;101796.56;5080497;28;20181;-72
2022/05/01 01:35:50;;;;;;;5.97;3.60;;;;;;;12.00;55.62;101797.97;5069277;28;20044;-73
2022/05/01 01:38:17;;;;;;;7.72;3.88;;;;;;;12.13;55.29;101793.91;5073977;28;20471;-72
2022/05/01 01:40:47;;;;;;;6.07;3.70;;;;;;;12.23;55.11;101796.16;5069242;28;20076;-72
2022/05/01 01:43:18;;;;;;;7.40;3.67;;;;;;;12.00;56.10;101799.75;5074705;28;20047;-73
2022/05/01 01:45:46;;;;;;;5.93;3.65;;;;;;;11.78;56.65;101804.16;5072452;28;20389;-73
2022/05/01 01:48:14;;;;;;;5.18;3.45;;;;;;;11.77;56.19;101802.44;5068738;28;20064;-72
2022/05/01 01:50:41;;;;;;;8.65;3.75;;;;;;;11.67;57.17;101808.03;5065986;28;20047;-73
2022/05/01 01:53:10;;;;;;;7.65;3.55;;;;;;;11.74;56.75;101803.41;5068540;28;20052;-73
2022/05/01 01:55:37;;;;;;;7.75;3.90;;;;;;;11.73;56.76;101806.94;5055146;28;20120;-73
2022/05/01 01:58:04;;;;;;;8.38;4.35;;;;;;;11.61;57.30;101802.13;5070773;28;20056;-73
2022/05/01 02:00:30;;;;;;;7.18;3.60;;;;;;;11.57;57.32;101795.28;5054490;28;20040;-73
2022/05/01 02:02:58;;;;;;;6.13;3.53;;;;;;;11.60;56.90;101796.03;5064891;28;20109;-73
2022/05/01 02:05:24;;;;;;;9.95;4.07;;;;;;;11.45;57.55;101796.66;5069722;28;20428;-73
2022/05/01 02:07:51;;;;;;;13.60;5.80;;;;;;;11.47;57.42;101796.56;5068310;28;20052;-72
2022/05/01 02:10:19;;;;;;;7.78;4.50;;;;;;;11.53;57.36;101794.56;5067473;28;20546;-72
2022/05/01 02:12:46;;;;;;;8.57;3.90;;;;;;;11.39;57.64;101796.88;5079611;28;20406;-72
2022/05/01 02:15:12;;;;;;;6.22;3.40;;;;;;;11.38;57.83;101782.00;5088805;28;20484;-73
2022/05/01 02:17:39;;;;;;;6.85;3.97;;;;;;;11.47;57.20;101784.31;5087659;28;20044;-72
2022/05/01 02:20:07;;;;;;;6.75;3.55;;;;;;;11.49;57.53;101779.81;5052596;28;20053;-72
2022/05/01 02:22:33;;;;;;;8.00;4.13;;;;;;;11.51;57.10;101778.00;5059995;28;20049;-72
2022/05/01 02:25:00;;;;;;;5.32;3.60;;;;;;;11.61;56.63;101781.13;5048696;28;20049;-72
2022/05/01 02:27:27;;;;;;;8.90;4.18;;;;;;;11.78;56.02;101791.88;5040947;28;20102;-73
2022/05/01 02:29:54;;;;;;;7.47;3.80;;;;;;;11.47;57.16;101781.66;5054647;28;20057;-72
2022/05/01 02:32:20;;;;;;;8.50;3.75;;;;;;;11.47;57.14;101786.06;5048006;28;20102;-72
2022/05/01 02:34:47;;;;;;;7.82;3.65;;;;;;;11.50;57.48;101784.19;5058408;28;20048;-72
2022/05/01 02:37:13;;;;;;;7.05;3.92;;;;;;;11.57;57.30;101779.53;5048164;28;20057;-72
2022/05/01 02:39:39;;;;;;;5.97;3.95;;;;;;;11.46;56.59;101773.84;5046965;28;20045;-72
2022/05/01 02:42:06;;;;;;;7.60;3.88;;;;;;;11.33;57.82;101780.50;5055962;28;20049;-72
2022/05/01 02:44:34;;;;;;;8.57;3.78;;;;;;;11.51;56.91;101782.41;5064760;28;20048;-73
2022/05/01 02:47:01;;;;;;;7.00;4.00;;;;;;;11.35;57.37;101779.50;5046749;28;20060;-74
2022/05/01 02:49:27;;;;;;;7.63;4.18;;;;;;;11.57;57.08;101783.00;5044238;28;20107;-73
2022/05/01 02:51:54;;;;;;;8.48;3.47;;;;;;;11.65;56.88;101780.94;5047601;28;20489;-74
2022/05/01 02:54:21;;;;;;;7.05;3.40;;;;;;;11.51;57.59;101771.91;5047657;28;20537;-73
2022/05/01 02:56:49;;;;;;;7.75;4.28;;;;;;;11.31;57.67;101767.41;5051113;28;20270;-73
2022/05/01 02:59:15;;;;;;;9.23;3.97;;;;;;;11.37;57.33;101776.84;5056222;28;20098;-72
2022/05/01 03:01:44;;;;;;;5.55;3.92;;;;;;;11.50;56.93;101776.28;5047722;28;20091;-73
2022/05/01 03:04:10;;;;;;;6.60;4.10;;;;;;;11.38;57.85;101776.75;5059784;28;20124;-73
2022/05/01 03:06:37;;;;;;;5.25;3.38;;;;;;;11.11;58.57;101770.81;5070511;28;20044;-72
2022/05/01 03:09:04;;;;;;;6.93;3.65;;;;;;;11.36;58.85;101775.97;5068243;28;20052;-74
2022/05/01 03:11:32;;;;;;;6.93;3.55;;;;;;;11.39;59.56;101775.00;5059758;28;20565;-73
2022/05/01 03:13:58;;;;;;;7.07;3.88;;;;;;;11.55;59.73;101771.72;5049981;28;20524;-72
2022/05/01 03:16:24;;;;;;;7.80;4.15;;;;;;;11.19;61.57;101773.16;5051523;28;20107;-72
2022/05/01 03:24:19;;;;;;;5.65;3.92;;;;;;;11.23;61.19;101762.44;5071490;28;20075;-72
2022/05/01 03:26:47;;;;;;;6.00;3.92;;;;;;;11.03;60.67;101772.00;5072112;28;20085;-72
2022/05/01 03:29:13;;;;;;;7.45;3.88;;;;;;;11.02;61.30;101768.50;5082500;28;20056;-71
2022/05/01 03:31:40;;;;;;;8.98;4.20;;;;;;;11.17;60.59;101772.34;5077730;28;20110;-72
2022/05/01 03:34:08;;;;;;;7.97;4.05;;;;;;;11.23;60.23;101782.63;5071152;28;20048;-73
2022/05/01 03:36:34;;;;;;;8.02;3.97;;;;;;;11.08;61.13;101776.19;5073152;28;20066;-72
2022/05/01 03:39:01;;;;;;;6.95;3.45;;;;;;;11.22;60.03;101783.53;5070778;28;20488;-73
2022/05/01 03:41:27;;;;;;;6.30;3.47;;;;;;;11.05;61.10;101792.00;5075624;28;20047;-73
2022/05/01 03:43:54;;;;;;;9.13;3.67;;;;;;;11.12;60.57;101780.38;5073896;28;20040;-73
2022/05/01 03:46:22;;;;;;;5.32;3.42;;;;;;;11.33;59.97;101783.97;5070461;28;20485;-73
2022/05/01 03:48:48;;;;;;;10.40;3.65;;;;;;;11.59;59.09;101778.56;5067847;28;20122;-73
2022/05/01 03:51:16;;;;;;;10.48;3.80;;;;;;;11.65;58.96;101780.94;5070989;28;20051;-73
2022/05/01 03:53:45;;;;;;;7.57;4.00;;;;;;;11.64;58.90;101773.97;5069949;28;20045;-73
2022/05/01 03:56:12;;;;;;;5.97;3.30;;;;;;;11.52;59.41;101777.09;5070164;28;20059;-72
2022/05/01 03:58:38;;;;;;;6.10;3.90;;;;;;;11.50;59.54;101778.91;5070329;28;20059;-72
2022/05/01 04:01:04;;;;;;;10.38;3.63;;;;;;;11.80;57.87;101787.41;5073234;28;20053;-72
2022/05/01 04:03:31;;;;;;;8.30;3.63;;;;;;;11.75;58.35;101784.09;5081100;28;20067;-73
2022/05/01 04:05:58;;;;;;;8.98;3.78;;;;;;;11.79;58.17;101790.09;5084241;28;20491;-73
2022/05/01 04:08:26;;;;;;;4.78;3.60;;;;;;;11.22;59.16;101789.63;5086121;28;20086;-73
2022/05/01 04:10:52;;;;;;;6.75;3.42;;;;;;;11.51;58.05;101780.63;5073865;28;20040;-73
2022/05/01 04:13:19;;;;;;;6.07;3.33;;;;;;;11.63;57.70;101789.81;5082009;28;20052;-73
2022/05/01 04:15:45;;;;;;;7.22;3.33;;;;;;;11.56;57.60;101797.09;5090754;28;20043;-73
2022/05/01 04:18:12;;;;;;;6.80;3.50;;;;;;;11.48;58.10;101799.16;5077419;28;20122;-73
2022/05/01 04:20:38;;;;;;;6.85;3.72;;;;;;;11.41;58.69;101794.19;5069729;28;20055;-74
2022/05/01 04:23:06;;;;;;;7.55;3.30;;;;;;;11.45;58.31;101801.91;5069964;28;20053;-73
2022/05/01 04:25:34;;;;;;;9.15;3.40;;;;;;;11.26;58.64;101805.28;5055438;28;20049;-73
2022/05/01 04:28:02;;;;;;;5.75;3.70;;;;;;;11.02;59.22;101800.00;5075455;28;20048;-73
2022/05/01 04:30:31;;;;;;;8.93;3.70;;;;;;;11.16;59.11;101799.50;5068334;28;20097;-73
2022/05/01 04:32:59;;;;;;;7.03;4.00;;;;;;;11.23;59.05;101801.81;5070838;28;20429;-72
2022/05/01 04:35:28;;;;;;;10.40;4.32;;;;;;;11.28;59.01;101804.28;5077456;28;20051;-72
2022/05/01 04:37:56;;;;;;;6.90;3.50;;;;;;;11.37;58.85;101809.22;5090262;28;20040;-72
2022/05/01 04:40:22;;;;;;;6.13;3.50;;;;;;;11.19;58.73;101804.66;5069613;28;20857;-72
2022/05/01 04:42:50;;;;;;;7.05;3.72;;;;;;;11.63;57.59;101803.81;5077810;28;20041;-73
2022/05/01 04:45:16;;;;;;;10.73;5.10;;;;;;;11.55;58.32;101803.25;5069748;28;20052;-72
2022/05/01 04:47:43;;;;;;;5.95;3.78;;;;;;;11.55;58.19;101805.88;5070197;28;20173;-72
2022/05/01 04:50:11;;;;;;;6.13;4.70;;;;;;;11.65;57.91;101801.97;5066242;28;20056;-72
2022/05/01 04:52:38;;;;;;;9.18;4.05;;;;;;;11.52;58.82;101813.03;5069594;28;20093;-72
2022/05/01 04:55:06;;;;;;;7.03;4.03;;;;;;;11.37;59.06;101809.22;5069697;28;20048;-72
2022/05/01 04:57:33;;;;;;;8.25;3.80;;;;;;;11.65;57.94;101804.59;5074977;28;20044;-72
2022/05/01 05:00:01;;;;;;;6.15;3.83;;;;;;;11.59;58.53;101804.84;5065064;28;20102;-73
2022/05/01 05:02:36;;;;;;;6.20;3.60;;;;;;;11.52;58.18;101808.63;5049595;28;20073;-73
2022/05/01 05:05:02;;;;;;;9.07;3.92;;;;;;;11.67;57.88;101802.78;5049284;28;20052;-73
2022/05/01 05:07:30;;;;;;;5.72;3.60;;;;;;;11.73;57.32;101804.31;5068531;28;20045;-73
2022/05/01 05:09:55;;;;;;;9.73;4.07;;;;;;;11.84;57.27;101810.00;5068462;28;20052;-74
2022/05/01 05:12:22;;;;;;;7.00;3.75;;;;;;;11.72;57.48;101810.50;5057294;28;20113;-73
2022/05/01 05:14:51;;;;;;;5.43;3.65;;;;;;;11.77;57.49;101812.94;5029441;28;20045;-73
2022/05/01 05:17:19;;;;;;;8.07;3.88;;;;;;;11.81;57.79;101809.28;5046067;28;20045;-73
2022/05/01 05:19:45;;;;;;;6.43;3.92;;;;;;;11.64;57.52;101812.56;5040678;28;20049;-73
2022/05/01 05:22:12;;;;;;;6.53;3.70;;;;;;;11.77;57.80;101813.81;5047112;28;20515;-73
2022/05/01 05:24:38;;;;;;;5.63;3.63;;;;;;;11.98;56.94;101812.06;5048498;28;20067;-73
2022/05/01 05:27:05;;;;;;;5.40;3.42;;;;;;;12.02;56.90;101809.25;5069696;28;20048;-73
2022/05/01 05:29:31;;;;;;;9.95;4.25;;;;;;;12.00;56.70;101812.88;5080304;28;20040;-73
2022/05/01 05:31:58;;;;;;;7.55;4.28;;;;;;;12.04;56.80;101817.09;5089431;28;20863;-73
2022/05/01 05:34:26;;;;;;;9.40;4.07;;;;;;;11.80;57.38;101823.31;5089007;28;20064;-73
2022/05/01 05:36:52;;;;;;;7.97;4.38;;;;;;;11.41;57.50;101830.97;5067161;28;20467;-73
2022/05/01 05:39:18;;;;;;;8.18;3.92;;;;;;;11.76;57.28;101837.50;5047929;28;20044;-73
2022/05/01 05:41:45;;;;;;;8.18;4.55;;;;;;;11.87;57.12;101832.66;5074505;28;20041;-72
2022/05/01 05:44:12;;;;;;;9.65;5.20;;;;;;;11.97;57.72;101829.63;5083804;28;20052;-72
2022/05/01 05:46:38;;;;;;;8.32;4.93;;;;;;;11.94;57.68;101836.78;5070071;28;20110;-72
2022/05/01 05:49:04;;;;;;;9.40;4.80;;;;;;;12.03;57.84;101841.66;5077729;28;20495;-72
2022/05/01 05:51:32;;;;;;;9.73;4.93;;;;;;;12.06;57.34;101831.88;5078650;28;20496;-71
2022/05/01 05:53:59;;;;;;;6.80;4.35;;;;;;;12.10;57.81;101837.88;5040900;28;20076;-71
2022/05/01 05:56:25;;;;;;;6.55;4.55;;;;;;;12.34;57.36;101836.84;5033027;28;20412;-71
2022/05/01 05:58:52;;;;;;;5.85;4.10;;;;;;;12.30;57.21;101847.59;5059378;28;20052;-71
2022/05/01 06:01:19;;;;;;;8.63;4.55;;;;;;;12.35;57.86;101840.34;5068660;28;20049;-71
2022/05/01 06:03:45;;;;;;;6.53;4.20;;;;;;;12.48;56.80;101847.69;5052799;28;20098;-71
2022/05/01 06:06:12;;;;;;;7.15;4.47;;;;;;;12.71;56.98;101836.19;5048559;28;20053;-71
2022/05/01 06:08:40;;;;;;;8.25;4.15;;;;;;;12.72;57.25;101834.38;5048535;28;20079;-72
2022/05/01 06:11:06;;;;;;;6.75;4.07;;;;;;;12.86;56.38;101834.66;5053548;28;20063;-72
2022/05/01 06:13:33;;;;;;;8.65;4.32;;;;;;;12.82;56.92;101833.94;5060264;28;20048;-73
2022/05/01 06:16:00;;;;;;;10.15;4.32;;;;;;;12.75;56.04;101843.00;5052867;28;20493;-72
2022/05/01 06:18:26;;;;;;;6.85;4.38;;;;;;;12.45;57.39;101842.53;5048302;28;20049;-72
2022/05/01 06:20:53;;;;;;;6.75;4.22;;;;;;;12.47;57.73;101850.38;5045294;28;20049;-72
2022/05/01 06:23:20;;;;;;;6.30;3.92;;;;;;;12.86;57.31;101845.19;5047903;28;20048;-72
2022/05/01 06:25:48;;;;;;;9.45;3.97;;;;;;;13.00;56.56;101842.81;5045685;28;20037;-72
2022/05/01 06:28:15;;;;;;;11.77;4.35;;;;;;;12.87;58.07;101841.63;5056661;28;20056;-73
2022/05/01 06:30:43;;;;;;;6.22;4.18;;;;;;;12.65;58.12;101852.22;5046940;28;20041;-72
2022/05/01 06:33:13;;;;;;;6.65;4.18;;;;;;;12.58;57.60;101856.03;5048428;28;20051;-72
2022/05/01 06:35:40;;;;;;;7.25;4.05;;;;;;;12.67;56.41;101856.47;5042965;28;20044;-72
2022/05/01 06:38:07;;;;;;;8.13;4.22;;;;;;;12.87;57.52;101857.41;5047763;28;20048;-72
2022/05/01 06:40:34;;;;;;;7.28;4.35;;;;;;;13.13;56.47;101865.06;5051325;28;20048;-72
2022/05/01 06:43:01;;;;;;;6.95;4.00;;;;;;;13.20;56.83;101860.38;5060180;28;20049;-72
2022/05/01 06:45:28;;;;;;;7.40;4.15;;;;;;;13.04;56.52;101868.06;5027972;28;20045;-72
2022/05/01 06:47:54;;;;;;;8.95;4.32;;;;;;;13.18;56.04;101864.84;5035026;28;20045;-72
2022/05/01 06:50:20;;;;;;;9.88;4.15;;;;;;;12.93;56.45;101880.84;5046978;28;20105;-73
2022/05/01 06:52:47;;;;;;;6.18;4.40;;;;;;;12.99;57.13;101870.91;5033381;28;20117;-73
2022/05/01 06:55:16;;;;;;;6.47;4.50;;;;;;;12.89;56.52;101882.78;5046029;28;20057;-73
2022/05/01 06:57:43;;;;;;;13.48;4.80;;;;;;;12.78;57.69;101878.88;5055945;28;20401;-72
2022/05/01 07:00:12;;;;;;;7.78;4.53;;;;;;;13.11;57.06;101869.56;5043384;28;20095;-73
2022/05/01 07:02:44;;;;;;;9.75;5.10;;;;;;;13.43;55.83;101874.22;5046887;28;20048;-73
2022/05/01 07:05:11;;;;;;;;;;;;;;;13.12;56.94;101884.41;5046396;28;20091;-74
2022/05/01 07:07:37;;;;;;;11.90;4.75;;;;;;;13.16;56.93;101884.22;5045605;28;19921;-71
2022/05/01 07:10:04;;;;;;;6.43;4.20;;;;;;;13.00;56.47;101891.06;5031193;28;20098;-70
2022/05/01 07:12:30;;;;;;;8.00;4.70;;;;;;;12.94;56.49;101890.44;5051273;28;20553;-71
2022/05/01 07:14:56;;;;;;;12.18;4.53;;;;;;;12.72;56.75;101889.66;5047789;28;20053;-71
2022/05/01 07:17:24;;;;;;;15.00;4.32;;;;;;;12.71;57.34;101891.44;5047901;28;20111;-70
2022/05/01 07:19:50;;;;;;;9.07;5.00;;;;;;;12.88;57.29;101890.72;5046760;28;20103;-71
2022/05/01 07:22:17;;;;;;;9.25;4.85;;;;;;;12.77;58.46;101895.59;5040481;28;20049;-71
2022/05/01 07:24:43;;;;;;;6.85;4.30;;;;;;;12.91;57.79;101886.19;5052258;28;20496;-71
2022/05/01 07:27:09;;;;;;;9.88;4.75;;;;;;;13.07;57.35;101896.91;5058593;28;20065;-71
2022/05/01 07:29:36;;;;;;;7.68;4.43;;;;;;;12.69;58.89;101894.13;5056661;28;20052;-71
2022/05/01 07:32:03;;;;;;;6.60;4.82;;;;;;;12.84;58.21;101902.28;5042271;28;20049;-71
2022/05/01 07:34:31;;;;;;;8.07;4.18;;;;;;;13.11;56.45;101883.56;5043765;28;20206;-71
2022/05/01 07:36:57;;;;;;;8.50;4.45;;;;;;;13.08;57.14;101891.56;5057286;28;20068;-71
2022/05/01 07:39:24;;;;;;;8.95;5.00;;;;;;;13.08;55.29;101898.63;5064708;28;20141;-72
2022/05/01 07:41:50;;;;;;;10.73;4.65;;;;;;;13.23;55.22;101894.50;5065864;28;20048;-71
2022/05/01 07:44:16;;;;;;;5.90;4.72;;;;;;;13.08;55.16;101888.91;5065006;28;20123;-71
2022/05/01 07:46:43;;;;;;;9.93;4.50;;;;;;;13.05;56.21;101894.31;5065910;28;20044;-71
2022/05/01 07:49:10;;;;;;;6.95;4.63;;;;;;;13.04;57.27;101892.59;5067994;28;20072;-70
2022/05/01 07:51:38;;;;;;;5.60;3.90;;;;;;;13.18;54.67;101889.41;5070055;28;20098;-71
2022/05/01 07:54:06;;;;;;;6.57;4.03;;;;;;;13.30;54.11;101883.63;5052440;28;20080;-70
2022/05/01 07:56:33;;;;;;;5.55;4.38;;;;;;;13.86;52.08;101885.41;5068298;28;20076;-71
2022/05/01 07:59:00;;;;;;;9.27;4.55;;;;;;;13.95;50.88;101891.09;5069746;28;20037;-71
2022/05/01 08:01:28;;;;;;;9.50;4.90;;;;;;;14.19;50.77;101886.41;5068926;28;20633;-70
2022/05/01 08:06:40;;;;;;;8.35;4.78;;;;;;;14.25;50.50;101890.56;5066167;28;20408;-71
2022/05/01 08:09:06;;;;;;;9.70;5.05;;;;;;;14.32;48.31;101882.28;5047780;28;20091;-71
2022/05/01 08:11:33;;;;;;;8.93;5.18;;;;;;;14.25;49.42;101888.78;5030319;28;20414;-71
2022/05/01 08:13:59;;;;;;;7.30;4.80;;;;;;;14.29;48.37;101887.72;5048226;28;20174;-71
2022/05/01 08:16:25;;;;;;;7.80;4.68;;;;;;;14.56;49.21;101877.56;5049517;28;20045;-71
2022/05/01 08:21:36;;;;;;;9.77;4.65;;;;;;;15.05;48.75;101874.16;5043651;28;20055;-71
2022/05/01 08:24:04;;;;;;;7.65;4.50;;;;;;;15.17;49.18;101872.66;5051135;28;20053;-71
2022/05/01 08:26:33;;;;;;;6.28;3.95;;;;;;;15.30;49.21;101872.88;5058825;28;20041;-71
2022/05/01 08:29:00;;;;;;;9.68;4.50;;;;;;;15.89;46.82;101869.63;5066599;28;20177;-71
2022/05/01 08:31:27;;;;;;;8.40;4.10;;;;;;;16.03;46.81;101872.34;5048414;28;20122;-71
2022/05/01 08:33:54;;;;;;;8.50;4.68;;;;;;;16.14;47.49;101874.38;5049739;28;20118;-71
2022/05/01 08:36:21;;;;;;;6.70;4.28;;;;;;;15.47;45.70;101876.31;5055293;28;20064;-71
2022/05/01 08:38:47;;;;;;;8.40;4.13;;;;;;;15.77;45.39;101887.03;5055662;28;20099;-71
2022/05/01 08:41:15;;;;;;;5.93;3.95;;;;;;;15.76;45.03;101882.69;5048905;28;20057;-71
2022/05/01 08:43:41;;;;;;;7.50;4.00;;;;;;;16.20;46.81;101887.25;5046266;28;20049;-71
2022/05/01 08:46:24;;;;;;;7.88;3.95;;;;;;;16.40;46.25;101884.34;5049114;28;20049;-71
2022/05/01 08:48:59;;;;;;;7.20;3.92;;;;;;;16.60;46.75;101883.19;5048837;28;20037;-71
2022/05/01 08:51:26;;;;;;;6.75;3.83;;;;;;;16.37;44.73;101888.00;5049066;28;20128;-71
2022/05/01 08:53:53;;;;;;;5.78;3.50;;;;;;;16.38;46.93;101887.06;5043620;28;20123;-70
2022/05/01 08:56:22;;;;;;;7.53;4.30;;;;;;;16.85;46.29;101879.00;5038452;28;20049;-71
2022/05/01 08:58:49;;;;;;;8.00;3.95;;;;;;;17.39;43.60;101872.16;5042628;28;20044;-71
2022/05/01 09:01:17;;;;;;;7.82;4.10;;;;;;;17.66;44.06;101876.72;5047180;28;20511;-71
2022/05/01 09:03:45;;;;;;;5.88;3.83;;;;;;;17.09;46.60;101884.63;5048105;28;20094;-71
2022/05/01 09:06:11;;;;;;;7.85;3.80;;;;;;;17.13;47.41;101880.84;5047543;28;20049;-71
2022/05/01 09:08:38;;;;;;;7.05;3.90;;;;;;;17.56;44.96;101872.88;5044355;28;20053;-71
2022/05/01 09:13:46;;;;;;;9.13;3.40;;;;;;;17.37;43.18;101873.19;5043606;28;20048;-69
2022/05/01 09:16:13;;;;;;;7.30;4.15;;;;;;;17.62;46.12;101880.50;5047855;28;20049;-69
2022/05/01 09:18:43;;;;;;;8.55;3.70;;;;;;;17.90;45.28;101875.13;5048385;28;20075;-69
2022/05/01 09:21:10;;;;;;;11.75;4.38;;;;;;;17.98;43.48;101873.69;5048912;28;20505;-68
2022/05/01 09:23:37;;;;;;;9.02;4.22;;;;;;;17.76;45.47;101876.03;5047168;28;20126;-68
2022/05/01 09:26:03;;;;;;;9.73;4.00;;;;;;;17.90;44.27;101867.19;5051989;28;20052;-68
2022/05/01 09:28:31;;;;;;;6.47;3.78;;;;;;;18.01;43.12;101869.97;5060460;28;20041;-68
2022/05/01 09:30:58;;;;;;;8.13;4.15;;;;;;;17.99;44.87;101871.91;5045678;28;20111;-69
2022/05/01 09:33:25;;;;;;;8.02;4.10;;;;;;;18.15;44.96;101867.28;5052477;28;20049;-68
2022/05/01 09:35:52;;;;;;;6.78;3.72;;;;;;;17.62;43.97;101872.53;5052725;28;20060;-68
2022/05/01 09:38:21;;;;;;;6.50;3.75;;;;;;;18.21;43.46;101864.25;5056625;28;20052;-69
2022/05/01 09:40:49;;;;;;;8.43;3.85;;;;;;;17.53;43.98;101874.78;5067875;28;20089;-68
2022/05/01 09:43:39;;;;;;;6.78;4.18;;;;;;;17.88;44.80;101866.44;5068930;28;20459;-68
2022/05/01 09:46:15;;;;;;;9.65;4.10;;;;;;;17.69;43.10;101865.91;5063754;28;20049;-68
2022/05/01 09:48:44;;;;;;;9.10;4.10;;;;;;;18.00;44.24;101862.97;5048535;28;20094;-68
2022/05/01 09:51:17;;;;;;;4.72;3.80;;;;;;;17.88;43.13;101861.97;5051539;28;20049;-68
2022/05/01 09:53:45;;;;;;;9.98;4.03;;;;;;;18.05;44.49;101860.88;5048740;28;20041;-68
2022/05/01 09:56:11;;;;;;;7.60;3.80;;;;;;;17.97;42.33;101857.88;5053415;28;20052;-68
2022/05/01 09:58:40;;;;;;;6.05;3.70;;;;;;;18.06;44.31;101862.59;5049493;28;20045;-68
2022/05/01 10:01:11;;;;;;;6.55;3.90;;;;;;;17.97;42.78;101863.16;5047948;28;20820;-69
2022/05/01 10:03:41;;;;;;;11.60;3.42;;;;;;;18.18;42.86;101860.94;5048099;28;20049;-68
2022/05/01 10:06:11;;;;;;;7.75;3.75;;;;;;;17.95;42.30;101857.13;5050594;28;20052;-68
2022/05/01 10:08:39;;;;;;;6.00;3.22;;;;;;;18.06;41.86;101854.63;5052680;28;20049;-68
2022/05/01 10:11:06;;;;;;;4.60;3.17;;;;;;;18.69;41.54;101859.28;5067352;28;20056;-68
2022/05/01 10:13:33;;;;;;;4.95;3.20;;;;;;;19.17;40.63;101855.91;5068859;28;20044;-68
2022/05/01 10:16:01;;;;;;;6.93;3.60;;;;;;;19.42;42.28;101849.75;5049761;28;20091;-68
2022/05/01 10:18:27;;;;;;;6.57;3.08;;;;;;;19.49;39.55;101851.00;5047211;28;20742;-68
2022/05/01 10:20:55;;;;;;;6.40;3.20;;;;;;;19.56;39.13;101840.75;5045186;28;20041;-68
2022/05/01 10:23:22;;;;;;;5.82;3.10;;;;;;;19.55;41.13;101847.88;5037118;28;20049;-68
2022/05/01 10:25:53;;;;;;;6.47;3.40;;;;;;;19.77;39.18;101848.03;5048099;28;20074;-68
2022/05/01 10:28:42;;;;;;;7.25;3.67;;;;;;;20.14;38.38;101830.22;5050811;28;20041;-68
2022/05/01 10:34:28;;;;;;;8.18;3.90;;;;;;;19.99;40.91;101834.03;4984521;28;20050;-68
2022/05/01 10:37:09;;;;;;;7.35;3.28;;;;;;;20.55;40.53;101837.78;5045338;28;20095;-68
2022/05/01 10:39:37;;;;;;;4.68;3.30;;;;;;;20.61;39.83;101825.81;5056451;28;20041;-68
2022/05/01 10:42:05;;;;;;;6.10;3.42;;;;;;;20.02;39.65;101830.28;5063235;28;20449;-68
2022/05/01 10:44:35;;;;;;;8.43;3.30;;;;;;;20.25;39.87;101824.94;5066397;28;20060;-68
2022/05/01 10:47:06;;;;;;;6.57;3.28;;;;;;;19.59;36.82;101829.91;5068140;28;20050;-68
2022/05/01 10:49:34;;;;;;;11.70;3.42;;;;;;;20.15;40.29;101829.25;5067556;28;20044;-68
2022/05/01 10:52:19;;;;;;;5.50;2.92;;;;;;;20.19;36.92;101819.22;5067891;28;20489;-68
2022/05/01 10:54:54;;;;;;;4.63;2.90;;;;;;;20.12;35.60;101815.31;5067557;28;20044;-68
2022/05/01 10:57:22;;;;;;;5.82;3.45;;;;;;;19.98;39.92;101812.84;5069331;28;20045;-68
2022/05/01 10:59:50;;;;;;;9.57;3.53;;;;;;;20.34;40.25;101816.28;5064953;28;20052;-68
2022/05/01 11:02:25;;;;;;;9.15;3.53;;;;;;;20.63;37.28;101808.75;5067589;28;20075;-69
2022/05/01 11:04:53;;;;;;;5.15;2.92;;;;;;;20.37;36.65;101813.41;5067487;28;20052;-68
2022/05/01 11:07:22;;;;;;;4.15;2.85;;;;;;;20.16;36.35;101804.34;5070778;28;20049;-68
2022/05/01 11:09:50;;;;;;;5.22;3.20;;;;;;;19.80;37.58;101801.75;5046987;28;20171;-68
2022/05/01 11:12:19;;;;;;;4.45;3.10;;;;;;;20.23;39.07;101799.38;5050973;28;20446;-68
2022/05/01 11:14:51;;;;;;;8.07;2.60;;;;;;;20.34;36.96;101799.47;5067532;28;20044;-68
2022/05/01 11:17:28;;;;;;;5.90;2.97;;;;;;;20.49;35.01;101803.63;5066202;28;20494;-68
2022/05/01 11:20:05;;;;;;;8.05;2.95;;;;;;;20.78;37.24;101798.72;5067089;28;20040;-68
2022/05/01 11:22:33;;;;;;;6.90;4.18;;;;;;;20.51;36.46;101806.19;5068042;28;20093;-68
2022/05/01 11:25:00;;;;;;;6.70;3.10;;;;;;;20.85;38.67;101811.44;5076626;28;20412;-68
2022/05/01 11:27:26;;;;;;;6.45;3.25;;;;;;;21.24;39.07;101807.50;5083086;28;20385;-68
2022/05/01 11:30:21;;;;;;;7.40;3.83;;;;;;;21.29;35.16;101799.97;5090964;28;20040;-68
2022/05/01 11:32:49;;;;;;;5.18;3.83;;;;;;;21.33;39.23;101795.22;5091545;28;20071;-68
2022/05/01 11:35:16;;;;;;;5.55;3.25;;;;;;;20.97;38.42;101798.97;5069296;28;20044;-68
2022/05/01 11:38:08;;;;;;;6.35;3.30;;;;;;;21.01;37.43;101794.25;5086486;28;20068;-68
2022/05/01 11:40:35;;;;;;;9.15;3.63;;;;;;;21.20;39.76;101795.38;5069840;28;20052;-68
2022/05/01 11:43:18;;;;;;;5.93;3.20;;;;;;;21.09;34.24;101791.84;5069672;28;20045;-68
2022/05/01 11:45:46;;;;;;;4.80;2.80;;;;;;;20.72;34.52;101792.06;5084443;28;20039;-68
2022/05/01 11:48:14;;;;;;;5.95;2.90;;;;;;;20.67;37.02;101786.22;5070336;28;20041;-68
2022/05/01 11:50:42;;;;;;;9.18;3.35;;;;;;;20.70;37.64;101785.97;5070409;28;20132;-68